sensor_id;sensor_type;location;lat;lon;timestamp;P1;durP1;ratioP1;P2;durP2;ratioP2
59530;SDS011;45349;48.692;8.186;2022-11-21T00:02:07;8.73;;;1.40;;
59530;SDS011;45349;48.692;8.186;2022-11-21T00:04:34;4.37;;;1.33;;
59530;SDS011;45349;48.692;8.186;2022-11-21T00:09:49;5.33;;;1.57;;
59530;SDS011;45349;48.692;8.186;2022-11-21T00:12:16;8.83;;;1.37;;
59530;SDS011;45349;48.692;8.186;2022-11-21T00:14:42;7.50;;;1.73;;
59530;SDS011;45349;48.692;8.186;2022-11-21T00:17:09;9.47;;;1.50;;
59530;SDS011;45349;48.692;8.186;2022-11-21T00:19:36;6.20;;;1.40;;
59530;SDS011;45349;48.692;8.186;2022-11-21T00:22:02;4.17;;;1.47;;
59530;SDS011;45349;48.692;8.186;2022-11-21T00:24:29;10.90;;;1.87;;
59530;SDS011;45349;48.692;8.186;2022-11-21T00:26:56;6.63;;;1.63;;
59530;SDS011;45349;48.692;8.186;2022-11-21T00:29:23;8.47;;;1.30;;
59530;SDS011;45349;48.692;8.186;2022-11-21T00:31:50;8.53;;;1.00;;
59530;SDS011;45349;48.692;8.186;2022-11-21T00:34:17;3.93;;;1.40;;
59530;SDS011;45349;48.692;8.186;2022-11-21T00:36:43;5.07;;;1.23;;
59530;SDS011;45349;48.692;8.186;2022-11-21T00:39:10;3.77;;;0.80;;
59530;SDS011;45349;48.692;8.186;2022-11-21T00:41:36;5.37;;;1.40;;
59530;SDS011;45349;48.692;8.186;2022-11-21T00:44:04;6.00;;;1.50;;
59530;SDS011;45349;48.692;8.186;2022-11-21T00:46:31;5.73;;;1.10;;
59530;SDS011;45349;48.692;8.186;2022-11-21T00:48:57;7.50;;;1.23;;
59530;SDS011;45349;48.692;8.186;2022-11-21T00:51:24;7.23;;;1.30;;
59530;SDS011;45349;48.692;8.186;2022-11-21T00:53:51;5.63;;;1.20;;
59530;SDS011;45349;48.692;8.186;2022-11-21T00:56:17;4.47;;;1.10;;
59530;SDS011;45349;48.692;8.186;2022-11-21T00:58:44;5.80;;;1.50;;
59530;SDS011;45349;48.692;8.186;2022-11-21T01:01:12;3.27;;;0.83;;
59530;SDS011;45349;48.692;8.186;2022-11-21T01:03:40;2.33;;;0.97;;
59530;SDS011;45349;48.692;8.186;2022-11-21T01:06:07;5.00;;;1.20;;
59530;SDS011;45349;48.692;8.186;2022-11-21T01:08:36;9.80;;;1.60;;
59530;SDS011;45349;48.692;8.186;2022-11-21T01:11:04;8.70;;;1.00;;
59530;SDS011;45349;48.692;8.186;2022-11-21T01:13:32;4.07;;;0.97;;
59530;SDS011;45349;48.692;8.186;2022-11-21T01:16:03;6.67;;;1.00;;
59530;SDS011;45349;48.692;8.186;2022-11-21T01:18:32;1.83;;;0.63;;
59530;SDS011;45349;48.692;8.186;2022-11-21T01:21:00;6.27;;;0.87;;
59530;SDS011;45349;48.692;8.186;2022-11-21T01:23:28;4.13;;;1.10;;
59530;SDS011;45349;48.692;8.186;2022-11-21T01:25:59;3.83;;;1.00;;
59530;SDS011;45349;48.692;8.186;2022-11-21T01:28:26;3.30;;;1.20;;
59530;SDS011;45349;48.692;8.186;2022-11-21T01:30:55;5.97;;;1.20;;
59530;SDS011;45349;48.692;8.186;2022-11-21T01:33:28;3.57;;;1.20;;
59530;SDS011;45349;48.692;8.186;2022-11-21T01:35:56;3.97;;;1.10;;
59530;SDS011;45349;48.692;8.186;2022-11-21T01:38:23;4.33;;;1.20;;
59530;SDS011;45349;48.692;8.186;2022-11-21T01:40:49;1.77;;;0.60;;
59530;SDS011;45349;48.692;8.186;2022-11-21T01:43:16;2.87;;;0.80;;
59530;SDS011;45349;48.692;8.186;2022-11-21T01:45:49;3.70;;;0.63;;
59530;SDS011;45349;48.692;8.186;2022-11-21T01:48:18;4.87;;;0.80;;
59530;SDS011;45349;48.692;8.186;2022-11-21T01:50:48;1.30;;;0.70;;
59530;SDS011;45349;48.692;8.186;2022-11-21T01:53:17;2.80;;;0.70;;
59530;SDS011;45349;48.692;8.186;2022-11-21T01:55:44;1.83;;;0.77;;
59530;SDS011;45349;48.692;8.186;2022-11-21T01:58:11;3.97;;;0.93;;
59530;SDS011;45349;48.692;8.186;2022-11-21T02:00:38;2.93;;;1.20;;
59530;SDS011;45349;48.692;8.186;2022-11-21T02:03:08;1.10;;;0.60;;
59530;SDS011;45349;48.692;8.186;2022-11-21T02:05:37;3.27;;;1.17;;
59530;SDS011;45349;48.692;8.186;2022-11-21T02:08:06;3.37;;;1.57;;
59530;SDS011;45349;48.692;8.186;2022-11-21T02:10:38;7.27;;;1.37;;
59530;SDS011;45349;48.692;8.186;2022-11-21T02:13:11;3.87;;;1.37;;
59530;SDS011;45349;48.692;8.186;2022-11-21T02:15:37;5.97;;;1.53;;
59530;SDS011;45349;48.692;8.186;2022-11-21T02:18:04;6.80;;;1.30;;
59530;SDS011;45349;48.692;8.186;2022-11-21T02:20:31;3.27;;;1.50;;
59530;SDS011;45349;48.692;8.186;2022-11-21T02:22:59;6.60;;;3.33;;
59530;SDS011;45349;48.692;8.186;2022-11-21T02:25:36;4.20;;;1.33;;
59530;SDS011;45349;48.692;8.186;2022-11-21T02:28:06;3.57;;;1.33;;
59530;SDS011;45349;48.692;8.186;2022-11-21T02:30:34;4.93;;;1.43;;
59530;SDS011;45349;48.692;8.186;2022-11-21T02:33:03;4.87;;;1.47;;
59530;SDS011;45349;48.692;8.186;2022-11-21T02:35:30;5.87;;;1.70;;
59530;SDS011;45349;48.692;8.186;2022-11-21T02:37:58;2.83;;;1.10;;
59530;SDS011;45349;48.692;8.186;2022-11-21T02:40:28;2.27;;;1.00;;
59530;SDS011;45349;48.692;8.186;2022-11-21T02:43:01;3.93;;;0.93;;
59530;SDS011;45349;48.692;8.186;2022-11-21T02:45:32;3.53;;;0.80;;
59530;SDS011;45349;48.692;8.186;2022-11-21T02:48:03;2.83;;;0.70;;
59530;SDS011;45349;48.692;8.186;2022-11-21T02:50:30;3.13;;;0.90;;
59530;SDS011;45349;48.692;8.186;2022-11-21T02:52:58;2.83;;;0.70;;
59530;SDS011;45349;48.692;8.186;2022-11-21T02:55:25;4.37;;;0.60;;
59530;SDS011;45349;48.692;8.186;2022-11-21T02:57:52;2.57;;;0.53;;
59530;SDS011;45349;48.692;8.186;2022-11-21T03:00:20;3.27;;;0.73;;
59530;SDS011;45349;48.692;8.186;2022-11-21T03:02:47;2.30;;;0.60;;
59530;SDS011;45349;48.692;8.186;2022-11-21T03:05:14;2.23;;;0.53;;
59530;SDS011;45349;48.692;8.186;2022-11-21T03:07:42;4.90;;;0.80;;
59530;SDS011;45349;48.692;8.186;2022-11-21T03:10:09;3.27;;;0.70;;
59530;SDS011;45349;48.692;8.186;2022-11-21T03:12:36;1.20;;;0.60;;
59530;SDS011;45349;48.692;8.186;2022-11-21T03:15:04;3.13;;;0.70;;
59530;SDS011;45349;48.692;8.186;2022-11-21T03:17:34;3.80;;;0.90;;
59530;SDS011;45349;48.692;8.186;2022-11-21T03:20:01;4.27;;;1.00;;
59530;SDS011;45349;48.692;8.186;2022-11-21T03:22:27;4.50;;;0.83;;
59530;SDS011;45349;48.692;8.186;2022-11-21T03:24:54;3.43;;;0.70;;
59530;SDS011;45349;48.692;8.186;2022-11-21T03:27:21;6.80;;;1.10;;
59530;SDS011;45349;48.692;8.186;2022-11-21T03:29:47;3.77;;;1.07;;
59530;SDS011;45349;48.692;8.186;2022-11-21T03:32:14;3.37;;;0.70;;
59530;SDS011;45349;48.692;8.186;2022-11-21T03:34:42;2.03;;;0.87;;
59530;SDS011;45349;48.692;8.186;2022-11-21T03:37:08;3.53;;;0.83;;
59530;SDS011;45349;48.692;8.186;2022-11-21T03:39:35;2.50;;;1.03;;
59530;SDS011;45349;48.692;8.186;2022-11-21T03:42:01;3.13;;;0.60;;
59530;SDS011;45349;48.692;8.186;2022-11-21T03:44:28;2.83;;;0.70;;
59530;SDS011;45349;48.692;8.186;2022-11-21T03:46:55;3.10;;;0.60;;
59530;SDS011;45349;48.692;8.186;2022-11-21T03:49:21;3.03;;;0.60;;
59530;SDS011;45349;48.692;8.186;2022-11-21T03:51:49;3.30;;;0.77;;
59530;SDS011;45349;48.692;8.186;2022-11-21T03:54:16;3.30;;;0.60;;
59530;SDS011;45349;48.692;8.186;2022-11-21T03:56:42;1.67;;;0.67;;
59530;SDS011;45349;48.692;8.186;2022-11-21T03:59:09;1.20;;;0.50;;
59530;SDS011;45349;48.692;8.186;2022-11-21T04:04:17;2.60;;;1.00;;
59530;SDS011;45349;48.692;8.186;2022-11-21T04:06:43;2.13;;;0.70;;
59530;SDS011;45349;48.692;8.186;2022-11-21T04:09:11;2.40;;;0.50;;
59530;SDS011;45349;48.692;8.186;2022-11-21T04:11:38;3.47;;;0.77;;
59530;SDS011;45349;48.692;8.186;2022-11-21T04:14:05;1.17;;;0.60;;
59530;SDS011;45349;48.692;8.186;2022-11-21T04:16:31;2.33;;;0.80;;
59530;SDS011;45349;48.692;8.186;2022-11-21T04:18:58;2.27;;;0.70;;
59530;SDS011;45349;48.692;8.186;2022-11-21T04:21:24;3.40;;;0.60;;
59530;SDS011;45349;48.692;8.186;2022-11-21T04:23:51;2.00;;;0.60;;
59530;SDS011;45349;48.692;8.186;2022-11-21T04:26:19;25.90;;;10.50;;
59530;SDS011;45349;48.692;8.186;2022-11-21T04:28:45;13.03;;;7.33;;
59530;SDS011;45349;48.692;8.186;2022-11-21T04:31:12;2.53;;;1.13;;
59530;SDS011;45349;48.692;8.186;2022-11-21T04:33:39;2.40;;;0.70;;
59530;SDS011;45349;48.692;8.186;2022-11-21T04:36:05;4.43;;;1.50;;
59530;SDS011;45349;48.692;8.186;2022-11-21T04:38:32;7.53;;;1.60;;
59530;SDS011;45349;48.692;8.186;2022-11-21T04:40:59;1.93;;;1.17;;
59530;SDS011;45349;48.692;8.186;2022-11-21T04:43:27;4.70;;;1.20;;
59530;SDS011;45349;48.692;8.186;2022-11-21T04:45:53;3.53;;;0.80;;
59530;SDS011;45349;48.692;8.186;2022-11-21T04:48:20;4.07;;;1.17;;
59530;SDS011;45349;48.692;8.186;2022-11-21T04:50:46;5.33;;;1.47;;
59530;SDS011;45349;48.692;8.186;2022-11-21T04:53:13;3.23;;;1.43;;
59530;SDS011;45349;48.692;8.186;2022-11-21T04:55:40;5.07;;;1.30;;
59530;SDS011;45349;48.692;8.186;2022-11-21T04:58:06;5.60;;;2.73;;
59530;SDS011;45349;48.692;8.186;2022-11-21T05:00:34;6.50;;;1.80;;
59530;SDS011;45349;48.692;8.186;2022-11-21T05:03:04;3.47;;;1.30;;
59530;SDS011;45349;48.692;8.186;2022-11-21T05:05:32;5.23;;;1.70;;
59530;SDS011;45349;48.692;8.186;2022-11-21T05:07:58;5.60;;;1.10;;
59530;SDS011;45349;48.692;8.186;2022-11-21T05:10:25;7.47;;;1.60;;
59530;SDS011;45349;48.692;8.186;2022-11-21T05:12:55;18.83;;;8.73;;
59530;SDS011;45349;48.692;8.186;2022-11-21T05:15:41;10.03;;;4.07;;
59530;SDS011;45349;48.692;8.186;2022-11-21T05:18:07;11.63;;;4.00;;
59530;SDS011;45349;48.692;8.186;2022-11-21T05:20:34;10.47;;;5.63;;
59530;SDS011;45349;48.692;8.186;2022-11-21T05:23:00;8.25;;;2.50;;
59530;SDS011;45349;48.692;8.186;2022-11-21T05:25:27;7.27;;;1.47;;
59530;SDS011;45349;48.692;8.186;2022-11-21T05:27:54;11.37;;;3.77;;
59530;SDS011;45349;48.692;8.186;2022-11-21T05:30:20;9.73;;;3.73;;
59530;SDS011;45349;48.692;8.186;2022-11-21T05:32:48;6.23;;;2.47;;
59530;SDS011;45349;48.692;8.186;2022-11-21T05:35:15;4.37;;;1.40;;
59530;SDS011;45349;48.692;8.186;2022-11-21T05:37:41;5.93;;;1.63;;
59530;SDS011;45349;48.692;8.186;2022-11-21T05:40:08;5.63;;;2.87;;
59530;SDS011;45349;48.692;8.186;2022-11-21T05:42:37;4.93;;;2.23;;
59530;SDS011;45349;48.692;8.186;2022-11-21T05:45:22;7.07;;;1.73;;
59530;SDS011;45349;48.692;8.186;2022-11-21T05:47:49;6.20;;;1.63;;
59530;SDS011;45349;48.692;8.186;2022-11-21T05:50:16;6.57;;;1.40;;
59530;SDS011;45349;48.692;8.186;2022-11-21T05:52:43;8.90;;;1.40;;
59530;SDS011;45349;48.692;8.186;2022-11-21T05:55:09;10.33;;;1.83;;
59530;SDS011;45349;48.692;8.186;2022-11-21T05:57:36;6.30;;;1.20;;
59530;SDS011;45349;48.692;8.186;2022-11-21T06:00:03;8.97;;;1.40;;
59530;SDS011;45349;48.692;8.186;2022-11-21T06:02:30;6.67;;;1.60;;
59530;SDS011;45349;48.692;8.186;2022-11-21T06:05:15;5.87;;;2.03;;
59530;SDS011;45349;48.692;8.186;2022-11-21T06:07:42;5.67;;;1.60;;
59530;SDS011;45349;48.692;8.186;2022-11-21T06:10:09;4.40;;;1.10;;
59530;SDS011;45349;48.692;8.186;2022-11-21T06:12:35;4.67;;;1.50;;
59530;SDS011;45349;48.692;8.186;2022-11-21T06:15:02;10.00;;;2.00;;
59530;SDS011;45349;48.692;8.186;2022-11-21T06:17:29;9.97;;;4.23;;
59530;SDS011;45349;48.692;8.186;2022-11-21T06:19:55;9.80;;;2.40;;
59530;SDS011;45349;48.692;8.186;2022-11-21T06:22:23;5.80;;;1.63;;
59530;SDS011;45349;48.692;8.186;2022-11-21T06:24:50;8.83;;;1.60;;
59530;SDS011;45349;48.692;8.186;2022-11-21T06:27:19;8.77;;;1.30;;
59530;SDS011;45349;48.692;8.186;2022-11-21T06:29:46;7.97;;;1.27;;
59530;SDS011;45349;48.692;8.186;2022-11-21T06:32:12;6.37;;;1.30;;
59530;SDS011;45349;48.692;8.186;2022-11-21T06:34:39;10.03;;;1.20;;
59530;SDS011;45349;48.692;8.186;2022-11-21T06:37:05;8.93;;;2.03;;
59530;SDS011;45349;48.692;8.186;2022-11-21T06:39:33;4.73;;;1.50;;
59530;SDS011;45349;48.692;8.186;2022-11-21T06:42:00;7.63;;;2.07;;
59530;SDS011;45349;48.692;8.186;2022-11-21T06:44:26;8.77;;;3.60;;
59530;SDS011;45349;48.692;8.186;2022-11-21T06:46:53;7.40;;;1.37;;
59530;SDS011;45349;48.692;8.186;2022-11-21T06:49:20;5.87;;;2.00;;
59530;SDS011;45349;48.692;8.186;2022-11-21T06:51:47;5.20;;;1.80;;
59530;SDS011;45349;48.692;8.186;2022-11-21T06:54:14;6.93;;;1.47;;
59530;SDS011;45349;48.692;8.186;2022-11-21T06:56:42;5.83;;;1.40;;
59530;SDS011;45349;48.692;8.186;2022-11-21T06:59:08;8.30;;;1.37;;
59530;SDS011;45349;48.692;8.186;2022-11-21T07:01:38;4.70;;;1.48;;
59530;SDS011;45349;48.692;8.186;2022-11-21T07:04:04;7.43;;;1.90;;
59530;SDS011;45349;48.692;8.186;2022-11-21T07:06:33;8.07;;;1.83;;
59530;SDS011;45349;48.692;8.186;2022-11-21T07:09:00;6.37;;;2.40;;
59530;SDS011;45349;48.692;8.186;2022-11-21T07:11:26;8.90;;;3.17;;
59530;SDS011;45349;48.692;8.186;2022-11-21T07:13:54;9.40;;;1.27;;
59530;SDS011;45349;48.692;8.186;2022-11-21T07:16:20;10.40;;;1.97;;
59530;SDS011;45349;48.692;8.186;2022-11-21T07:18:50;3.70;;;0.77;;
59530;SDS011;45349;48.692;8.186;2022-11-21T07:21:16;0.00;;;0.00;;
59530;SDS011;45349;48.692;8.186;2022-11-21T07:23:43;0.00;;;0.00;;
59530;SDS011;45349;48.692;8.186;2022-11-21T07:26:09;0.00;;;0.00;;
59530;SDS011;45349;48.692;8.186;2022-11-21T07:28:36;0.03;;;0.03;;
59530;SDS011;45349;48.692;8.186;2022-11-21T07:31:05;0.00;;;0.00;;
59530;SDS011;45349;48.692;8.186;2022-11-21T07:33:35;0.00;;;0.00;;
59530;SDS011;45349;48.692;8.186;2022-11-21T07:36:02;0.00;;;0.00;;
59530;SDS011;45349;48.692;8.186;2022-11-21T07:38:29;0.00;;;0.00;;
59530;SDS011;45349;48.692;8.186;2022-11-21T07:40:55;0.00;;;0.00;;
59530;SDS011;45349;48.692;8.186;2022-11-21T07:43:22;0.00;;;0.00;;
59530;SDS011;45349;48.692;8.186;2022-11-21T07:45:49;0.00;;;0.00;;
59530;SDS011;45349;48.692;8.186;2022-11-21T07:48:17;0.00;;;0.00;;
59530;SDS011;45349;48.692;8.186;2022-11-21T07:50:46;0.00;;;0.00;;
59530;SDS011;45349;48.692;8.186;2022-11-21T07:53:13;0.00;;;0.00;;
59530;SDS011;45349;48.692;8.186;2022-11-21T07:55:39;0.00;;;0.00;;
59530;SDS011;45349;48.692;8.186;2022-11-21T07:58:07;0.00;;;0.00;;
59530;SDS011;45349;48.692;8.186;2022-11-21T08:00:35;0.00;;;0.00;;
59530;SDS011;45349;48.692;8.186;2022-11-21T08:03:03;0.00;;;0.00;;
59530;SDS011;45349;48.692;8.186;2022-11-21T08:05:35;0.00;;;0.00;;
59530;SDS011;45349;48.692;8.186;2022-11-21T08:08:02;0.00;;;0.00;;
59530;SDS011;45349;48.692;8.186;2022-11-21T08:10:30;0.00;;;0.00;;
59530;SDS011;45349;48.692;8.186;2022-11-21T08:12:56;0.00;;;0.00;;
59530;SDS011;45349;48.692;8.186;2022-11-21T08:15:23;0.00;;;0.00;;
59530;SDS011;45349;48.692;8.186;2022-11-21T08:17:49;0.00;;;0.00;;
59530;SDS011;45349;48.692;8.186;2022-11-21T08:20:16;0.00;;;0.00;;
59530;SDS011;45349;48.692;8.186;2022-11-21T08:22:44;0.10;;;0.10;;
59530;SDS011;45349;48.692;8.186;2022-11-21T08:25:10;0.00;;;0.00;;
59530;SDS011;45349;48.692;8.186;2022-11-21T08:27:37;0.00;;;0.00;;
59530;SDS011;45349;48.692;8.186;2022-11-21T08:30:04;0.00;;;0.00;;
59530;SDS011;45349;48.692;8.186;2022-11-21T08:32:32;0.00;;;0.00;;
59530;SDS011;45349;48.692;8.186;2022-11-21T08:34:59;0.00;;;0.00;;
59530;SDS011;45349;48.692;8.186;2022-11-21T08:37:26;0.00;;;0.00;;
59530;SDS011;45349;48.692;8.186;2022-11-21T08:39:54;0.00;;;0.00;;
59530;SDS011;45349;48.692;8.186;2022-11-21T08:42:23;0.00;;;0.00;;
59530;SDS011;45349;48.692;8.186;2022-11-21T08:44:49;0.00;;;0.00;;
59530;SDS011;45349;48.692;8.186;2022-11-21T08:47:16;0.07;;;0.07;;
59530;SDS011;45349;48.692;8.186;2022-11-21T08:49:43;0.07;;;0.07;;
59530;SDS011;45349;48.692;8.186;2022-11-21T08:52:09;0.00;;;0.00;;
59530;SDS011;45349;48.692;8.186;2022-11-21T08:54:36;0.00;;;0.00;;
59530;SDS011;45349;48.692;8.186;2022-11-21T08:57:04;0.00;;;0.00;;
59530;SDS011;45349;48.692;8.186;2022-11-21T08:59:30;0.00;;;0.00;;
59530;SDS011;45349;48.692;8.186;2022-11-21T09:01:57;0.00;;;0.00;;
59530;SDS011;45349;48.692;8.186;2022-11-21T09:04:24;0.00;;;0.00;;
59530;SDS011;45349;48.692;8.186;2022-11-21T09:06:50;0.10;;;0.10;;
59530;SDS011;45349;48.692;8.186;2022-11-21T09:09:17;0.00;;;0.00;;
59530;SDS011;45349;48.692;8.186;2022-11-21T09:11:43;0.00;;;0.00;;
59530;SDS011;45349;48.692;8.186;2022-11-21T09:14:11;0.00;;;0.00;;
59530;SDS011;45349;48.692;8.186;2022-11-21T09:16:55;0.00;;;0.00;;
59530;SDS011;45349;48.692;8.186;2022-11-21T09:19:39;0.00;;;0.00;;
59530;SDS011;45349;48.692;8.186;2022-11-21T09:22:06;0.00;;;0.00;;
59530;SDS011;45349;48.692;8.186;2022-11-21T09:24:32;0.00;;;0.00;;
59530;SDS011;45349;48.692;8.186;2022-11-21T09:26:59;0.00;;;0.00;;
59530;SDS011;45349;48.692;8.186;2022-11-21T09:29:27;0.00;;;0.00;;
59530;SDS011;45349;48.692;8.186;2022-11-21T09:31:53;0.00;;;0.00;;
59530;SDS011;45349;48.692;8.186;2022-11-21T09:34:20;0.00;;;0.00;;
59530;SDS011;45349;48.692;8.186;2022-11-21T09:36:46;0.00;;;0.00;;
59530;SDS011;45349;48.692;8.186;2022-11-21T09:39:13;0.00;;;0.00;;
59530;SDS011;45349;48.692;8.186;2022-11-21T09:41:41;0.00;;;0.00;;
59530;SDS011;45349;48.692;8.186;2022-11-21T09:44:35;0.00;;;0.00;;
59530;SDS011;45349;48.692;8.186;2022-11-21T09:47:16;0.00;;;0.00;;
59530;SDS011;45349;48.692;8.186;2022-11-21T09:49:48;0.00;;;0.00;;
59530;SDS011;45349;48.692;8.186;2022-11-21T09:52:20;0.00;;;0.00;;
59530;SDS011;45349;48.692;8.186;2022-11-21T09:54:51;0.00;;;0.00;;
59530;SDS011;45349;48.692;8.186;2022-11-21T09:57:22;0.00;;;0.00;;
59530;SDS011;45349;48.692;8.186;2022-11-21T09:59:52;0.00;;;0.00;;
59530;SDS011;45349;48.692;8.186;2022-11-21T10:02:19;0.00;;;0.00;;
59530;SDS011;45349;48.692;8.186;2022-11-21T10:04:48;0.00;;;0.00;;
59530;SDS011;45349;48.692;8.186;2022-11-21T10:07:18;0.00;;;0.00;;
59530;SDS011;45349;48.692;8.186;2022-11-21T10:12:54;0.10;;;0.10;;
59530;SDS011;45349;48.692;8.186;2022-11-21T10:15:34;0.10;;;0.10;;
59530;SDS011;45349;48.692;8.186;2022-11-21T10:18:22;0.00;;;0.00;;
59530;SDS011;45349;48.692;8.186;2022-11-21T10:21:00;0.00;;;0.00;;
59530;SDS011;45349;48.692;8.186;2022-11-21T10:23:35;0.00;;;0.00;;
59530;SDS011;45349;48.692;8.186;2022-11-21T10:26:14;0.00;;;0.00;;
59530;SDS011;45349;48.692;8.186;2022-11-21T10:28:48;0.07;;;0.07;;
59530;SDS011;45349;48.692;8.186;2022-11-21T10:31:19;0.00;;;0.00;;
59530;SDS011;45349;48.692;8.186;2022-11-21T10:33:47;0.00;;;0.00;;
59530;SDS011;45349;48.692;8.186;2022-11-21T10:36:22;0.00;;;0.00;;
59530;SDS011;45349;48.692;8.186;2022-11-21T10:38:53;0.00;;;0.00;;
59530;SDS011;45349;48.692;8.186;2022-11-21T10:41:29;0.00;;;0.00;;
59530;SDS011;45349;48.692;8.186;2022-11-21T10:44:06;0.00;;;0.00;;
59530;SDS011;45349;48.692;8.186;2022-11-21T10:46:59;0.00;;;0.00;;
59530;SDS011;45349;48.692;8.186;2022-11-21T10:49:27;0.00;;;0.00;;
59530;SDS011;45349;48.692;8.186;2022-11-21T10:51:59;0.00;;;0.00;;
59530;SDS011;45349;48.692;8.186;2022-11-21T10:54:31;0.00;;;0.00;;
59530;SDS011;45349;48.692;8.186;2022-11-21T10:56:58;0.00;;;0.00;;
59530;SDS011;45349;48.692;8.186;2022-11-21T10:59:28;0.00;;;0.00;;
59530;SDS011;45349;48.692;8.186;2022-11-21T11:01:56;0.00;;;0.00;;
59530;SDS011;45349;48.692;8.186;2022-11-21T11:04:26;0.00;;;0.00;;
59530;SDS011;45349;48.692;8.186;2022-11-21T11:06:54;0.00;;;0.00;;
59530;SDS011;45349;48.692;8.186;2022-11-21T11:09:22;0.00;;;0.00;;
59530;SDS011;45349;48.692;8.186;2022-11-21T11:11:50;0.00;;;0.00;;
59530;SDS011;45349;48.692;8.186;2022-11-21T11:14:25;0.00;;;0.00;;
59530;SDS011;45349;48.692;8.186;2022-11-21T11:16:55;0.00;;;0.00;;
59530;SDS011;45349;48.692;8.186;2022-11-21T11:19:23;0.00;;;0.00;;
59530;SDS011;45349;48.692;8.186;2022-11-21T11:21:52;0.00;;;0.00;;
59530;SDS011;45349;48.692;8.186;2022-11-21T11:24:21;0.00;;;0.00;;
59530;SDS011;45349;48.692;8.186;2022-11-21T11:26:52;0.00;;;0.00;;
59530;SDS011;45349;48.692;8.186;2022-11-21T11:29:23;0.00;;;0.00;;
59530;SDS011;45349;48.692;8.186;2022-11-21T11:31:52;0.00;;;0.00;;
59530;SDS011;45349;48.692;8.186;2022-11-21T11:34:23;0.00;;;0.00;;
59530;SDS011;45349;48.692;8.186;2022-11-21T11:36:59;0.00;;;0.00;;
59530;SDS011;45349;48.692;8.186;2022-11-21T11:39:37;0.00;;;0.00;;
59530;SDS011;45349;48.692;8.186;2022-11-21T11:45:15;0.00;;;0.00;;
59530;SDS011;45349;48.692;8.186;2022-11-21T11:48:12;0.00;;;0.00;;
59530;SDS011;45349;48.692;8.186;2022-11-21T11:50:43;0.00;;;0.00;;
59530;SDS011;45349;48.692;8.186;2022-11-21T11:53:14;0.00;;;0.00;;
59530;SDS011;45349;48.692;8.186;2022-11-21T11:55:45;0.00;;;0.00;;
59530;SDS011;45349;48.692;8.186;2022-11-21T11:58:18;0.00;;;0.00;;
59530;SDS011;45349;48.692;8.186;2022-11-21T12:00:52;0.00;;;0.00;;
59530;SDS011;45349;48.692;8.186;2022-11-21T12:03:28;0.00;;;0.00;;
59530;SDS011;45349;48.692;8.186;2022-11-21T12:06:08;0.00;;;0.00;;
59530;SDS011;45349;48.692;8.186;2022-11-21T12:08:42;0.00;;;0.00;;
59530;SDS011;45349;48.692;8.186;2022-11-21T12:11:24;0.00;;;0.00;;
59530;SDS011;45349;48.692;8.186;2022-11-21T12:14:29;0.00;;;0.00;;
59530;SDS011;45349;48.692;8.186;2022-11-21T12:17:30;0.00;;;0.00;;
59530;SDS011;45349;48.692;8.186;2022-11-21T12:20:04;0.00;;;0.00;;
59530;SDS011;45349;48.692;8.186;2022-11-21T12:22:41;0.00;;;0.00;;
59530;SDS011;45349;48.692;8.186;2022-11-21T12:25:09;0.00;;;0.00;;
59530;SDS011;45349;48.692;8.186;2022-11-21T12:27:37;0.00;;;0.00;;
59530;SDS011;45349;48.692;8.186;2022-11-21T12:30:17;0.00;;;0.00;;
59530;SDS011;45349;48.692;8.186;2022-11-21T12:32:54;0.00;;;0.00;;
59530;SDS011;45349;48.692;8.186;2022-11-21T12:35:32;0.00;;;0.00;;
59530;SDS011;45349;48.692;8.186;2022-11-21T12:38:12;0.00;;;0.00;;
59530;SDS011;45349;48.692;8.186;2022-11-21T12:40:53;0.00;;;0.00;;
59530;SDS011;45349;48.692;8.186;2022-11-21T12:43:46;0.00;;;0.00;;
59530;SDS011;45349;48.692;8.186;2022-11-21T12:46:18;0.00;;;0.00;;
59530;SDS011;45349;48.692;8.186;2022-11-21T12:48:53;0.00;;;0.00;;
59530;SDS011;45349;48.692;8.186;2022-11-21T12:51:50;0.00;;;0.00;;
59530;SDS011;45349;48.692;8.186;2022-11-21T12:54:49;0.00;;;0.00;;
59530;SDS011;45349;48.692;8.186;2022-11-21T12:57:25;0.00;;;0.00;;
59530;SDS011;45349;48.692;8.186;2022-11-21T13:00:03;0.00;;;0.00;;
59530;SDS011;45349;48.692;8.186;2022-11-21T13:02:45;0.00;;;0.00;;
59530;SDS011;45349;48.692;8.186;2022-11-21T13:05:30;0.00;;;0.00;;
59530;SDS011;45349;48.692;8.186;2022-11-21T13:08:02;0.00;;;0.00;;
59530;SDS011;45349;48.692;8.186;2022-11-21T13:10:34;0.00;;;0.00;;
59530;SDS011;45349;48.692;8.186;2022-11-21T13:13:05;0.00;;;0.00;;
59530;SDS011;45349;48.692;8.186;2022-11-21T13:15:39;0.00;;;0.00;;
59530;SDS011;45349;48.692;8.186;2022-11-21T13:18:15;0.00;;;0.00;;
59530;SDS011;45349;48.692;8.186;2022-11-21T13:20:47;0.00;;;0.00;;
59530;SDS011;45349;48.692;8.186;2022-11-21T13:23:33;0.00;;;0.00;;
59530;SDS011;45349;48.692;8.186;2022-11-21T13:26:06;0.00;;;0.00;;
59530;SDS011;45349;48.692;8.186;2022-11-21T13:29:16;0.00;;;0.00;;
59530;SDS011;45349;48.692;8.186;2022-11-21T13:31:43;0.00;;;0.00;;
59530;SDS011;45349;48.692;8.186;2022-11-21T13:37:02;0.00;;;0.00;;
59530;SDS011;45349;48.692;8.186;2022-11-21T13:39:30;0.00;;;0.00;;
59530;SDS011;45349;48.692;8.186;2022-11-21T13:42:06;0.00;;;0.00;;
59530;SDS011;45349;48.692;8.186;2022-11-21T13:44:51;0.00;;;0.00;;
59530;SDS011;45349;48.692;8.186;2022-11-21T13:53:33;0.00;;;0.00;;
59530;SDS011;45349;48.692;8.186;2022-11-21T13:56:11;0.00;;;0.00;;
59530;SDS011;45349;48.692;8.186;2022-11-21T13:58:55;0.00;;;0.00;;
59530;SDS011;45349;48.692;8.186;2022-11-21T14:01:36;0.00;;;0.00;;
59530;SDS011;45349;48.692;8.186;2022-11-21T14:07:24;0.00;;;0.00;;
59530;SDS011;45349;48.692;8.186;2022-11-21T14:09:53;0.00;;;0.00;;
59530;SDS011;45349;48.692;8.186;2022-11-21T14:12:22;0.00;;;0.00;;
59530;SDS011;45349;48.692;8.186;2022-11-21T14:14:55;0.00;;;0.00;;
59530;SDS011;45349;48.692;8.186;2022-11-21T14:17:41;0.00;;;0.00;;
59530;SDS011;45349;48.692;8.186;2022-11-21T14:20:14;0.00;;;0.00;;
59530;SDS011;45349;48.692;8.186;2022-11-21T14:22:45;0.00;;;0.00;;
59530;SDS011;45349;48.692;8.186;2022-11-21T14:25:19;0.00;;;0.00;;
59530;SDS011;45349;48.692;8.186;2022-11-21T14:27:50;0.00;;;0.00;;
59530;SDS011;45349;48.692;8.186;2022-11-21T14:30:26;0.00;;;0.00;;
59530;SDS011;45349;48.692;8.186;2022-11-21T14:32:54;0.00;;;0.00;;
59530;SDS011;45349;48.692;8.186;2022-11-21T14:35:22;0.00;;;0.00;;
59530;SDS011;45349;48.692;8.186;2022-11-21T14:37:49;0.00;;;0.00;;
59530;SDS011;45349;48.692;8.186;2022-11-21T14:40:18;0.00;;;0.00;;
59530;SDS011;45349;48.692;8.186;2022-11-21T14:42:46;0.00;;;0.00;;
59530;SDS011;45349;48.692;8.186;2022-11-21T14:45:14;0.00;;;0.00;;
59530;SDS011;45349;48.692;8.186;2022-11-21T14:47:48;0.00;;;0.00;;
59530;SDS011;45349;48.692;8.186;2022-11-21T14:50:23;0.00;;;0.00;;
59530;SDS011;45349;48.692;8.186;2022-11-21T14:52:51;0.00;;;0.00;;
59530;SDS011;45349;48.692;8.186;2022-11-21T14:55:23;0.00;;;0.00;;
59530;SDS011;45349;48.692;8.186;2022-11-21T14:57:52;0.00;;;0.00;;
59530;SDS011;45349;48.692;8.186;2022-11-21T15:00:21;0.00;;;0.00;;
59530;SDS011;45349;48.692;8.186;2022-11-21T15:02:51;0.00;;;0.00;;
59530;SDS011;45349;48.692;8.186;2022-11-21T15:05:19;0.00;;;0.00;;
59530;SDS011;45349;48.692;8.186;2022-11-21T15:07:48;0.00;;;0.00;;
59530;SDS011;45349;48.692;8.186;2022-11-21T15:10:15;0.00;;;0.00;;
59530;SDS011;45349;48.692;8.186;2022-11-21T15:12:46;0.00;;;0.00;;
59530;SDS011;45349;48.692;8.186;2022-11-21T15:15:23;0.00;;;0.00;;
59530;SDS011;45349;48.692;8.186;2022-11-21T15:17:56;0.00;;;0.00;;
59530;SDS011;45349;48.692;8.186;2022-11-21T15:20:24;0.00;;;0.00;;
59530;SDS011;45349;48.692;8.186;2022-11-21T15:22:53;0.00;;;0.00;;
59530;SDS011;45349;48.692;8.186;2022-11-21T15:25:21;0.00;;;0.00;;
59530;SDS011;45349;48.692;8.186;2022-11-21T15:27:50;0.00;;;0.00;;
59530;SDS011;45349;48.692;8.186;2022-11-21T15:30:24;0.00;;;0.00;;